createdAt,value
2019-01-18T00:01:10.177Z,1.30
2019-01-18T00:03:44.015Z,1.40
2019-01-18T00:06:15.071Z,1.40
2019-01-18T00:08:51.401Z,1.60
2019-01-18T00:11:22.574Z,1.37
2019-01-18T00:13:57.512Z,1.20
2019-01-18T00:16:28.635Z,1.70
2019-01-18T00:18:59.501Z,1.90
2019-01-18T00:21:32.694Z,1.70
2019-01-18T00:24:06.549Z,1.40
2019-01-18T00:26:37.630Z,1.90
2019-01-18T00:29:08.385Z,1.73
2019-01-18T00:31:39.816Z,1.53
2019-01-18T00:34:10.875Z,1.40
2019-01-18T00:36:41.697Z,1.60
2019-01-18T00:39:12.507Z,1.60
2019-01-18T00:41:43.887Z,1.60
2019-01-18T00:44:14.723Z,1.70
2019-01-18T00:46:45.487Z,1.80
2019-01-18T00:49:16.464Z,1.80
2019-01-18T00:51:47.444Z,2.23
2019-01-18T00:54:18.181Z,1.87
2019-01-18T00:56:50.683Z,2.20
2019-01-18T00:59:23.062Z,1.87
2019-01-18T01:01:53.914Z,2.10
2019-01-18T01:04:25.082Z,2.30
2019-01-18T01:06:55.844Z,2.30
2019-01-18T01:09:30.969Z,2.40
2019-01-18T01:12:01.973Z,1.70
2019-01-18T01:14:34.906Z,2.20
2019-01-18T01:17:06.200Z,2.20
2019-01-18T01:19:36.978Z,2.53
2019-01-18T01:22:07.790Z,2.30
2019-01-18T01:24:44.634Z,2.53
2019-01-18T01:27:15.775Z,2.50
2019-01-18T01:29:46.564Z,2.63
2019-01-18T01:32:18.214Z,2.27
2019-01-18T01:34:48.998Z,3.03
2019-01-18T01:37:19.773Z,2.67
2019-01-18T01:39:50.586Z,2.80
2019-01-18T01:42:22.500Z,2.50
2019-01-18T01:44:53.237Z,2.83
2019-01-18T01:47:24.036Z,2.80
2019-01-18T01:49:54.838Z,2.73
2019-01-18T01:52:25.659Z,2.80
2019-01-18T01:54:56.495Z,2.60
2019-01-18T01:57:27.307Z,3.10
2019-01-18T01:59:58.460Z,3.03
2019-01-18T02:02:29.668Z,3.10
2019-01-18T02:05:01.185Z,3.10
2019-01-18T02:07:32.050Z,2.87
2019-01-18T02:10:02.890Z,3.30
2019-01-18T02:12:33.706Z,2.93
2019-01-18T02:15:05.349Z,3.30
2019-01-18T02:17:36.084Z,3.43
2019-01-18T02:20:08.037Z,3.60
2019-01-18T02:22:40.481Z,2.87
2019-01-18T02:25:11.258Z,2.87
2019-01-18T02:27:42.084Z,3.13
2019-01-18T02:30:15.974Z,2.93
2019-01-18T02:32:46.827Z,3.37
2019-01-18T02:35:17.588Z,3.20
2019-01-18T02:37:48.423Z,3.30
2019-01-18T02:40:19.332Z,3.33
2019-01-18T02:42:51.638Z,3.30
2019-01-18T02:45:27.434Z,3.30
2019-01-18T02:47:58.673Z,3.00
2019-01-18T02:50:30.837Z,3.20
2019-01-18T02:53:03.194Z,3.17
2019-01-18T02:55:34.284Z,3.00
2019-01-18T02:58:05.534Z,3.10
2019-01-18T03:00:36.390Z,3.57
2019-01-18T03:03:07.284Z,3.40
2019-01-18T03:05:38.057Z,2.80
2019-01-18T03:08:09.169Z,3.03
2019-01-18T03:10:40.406Z,2.83
2019-01-18T03:13:12.151Z,2.90
2019-01-18T03:15:43.322Z,2.47
2019-01-18T03:18:14.126Z,2.50
2019-01-18T03:20:46.277Z,2.60
2019-01-18T03:23:17.341Z,2.43
2019-01-18T03:25:48.143Z,2.60
2019-01-18T03:28:18.872Z,3.00
2019-01-18T03:30:52.842Z,2.33
2019-01-18T03:33:23.692Z,2.73
2019-01-18T03:35:55.941Z,2.93
2019-01-18T03:38:27.099Z,2.73
2019-01-18T03:40:57.933Z,3.03
2019-01-18T03:43:28.750Z,3.07
2019-01-18T03:45:59.552Z,3.03
2019-01-18T03:48:31.387Z,2.67
2019-01-18T03:51:02.247Z,2.90
2019-01-18T03:53:33.028Z,2.20
2019-01-18T03:56:03.848Z,2.27
2019-01-18T03:58:35.042Z,2.70
2019-01-18T04:01:06.345Z,2.50
2019-01-18T04:03:43.912Z,2.50
2019-01-18T04:06:18.485Z,2.50
2019-01-18T04:08:49.895Z,2.20
2019-01-18T04:11:21.174Z,2.53
2019-01-18T04:13:55.333Z,2.63
2019-01-18T04:16:26.719Z,2.73
2019-01-18T04:18:59.312Z,3.20
2019-01-18T04:21:30.430Z,2.47
2019-01-18T04:24:12.324Z,2.30
2019-01-18T04:26:48.649Z,2.30
2019-01-18T04:29:19.439Z,2.50
2019-01-18T04:31:50.244Z,2.20
2019-01-18T04:34:21.285Z,2.50
2019-01-18T04:36:52.390Z,2.20
2019-01-18T04:39:23.105Z,2.70
2019-01-18T04:41:54.273Z,2.27
2019-01-18T04:44:25.767Z,2.07
2019-01-18T04:46:56.524Z,2.40
2019-01-18T04:49:27.361Z,2.23
2019-01-18T04:51:58.438Z,1.90
2019-01-18T04:54:29.916Z,2.20
2019-01-18T04:57:00.735Z,2.27
2019-01-18T04:59:36.001Z,3.37
2019-01-18T05:02:06.854Z,2.23
2019-01-18T05:04:39.405Z,2.83
2019-01-18T05:07:10.614Z,2.50
2019-01-18T05:09:41.466Z,2.93
2019-01-18T05:12:12.291Z,3.10
2019-01-18T05:14:43.164Z,2.57
2019-01-18T05:17:14.150Z,2.20
2019-01-18T05:19:49.383Z,2.20
2019-01-18T05:22:20.146Z,2.63
2019-01-18T05:24:51.079Z,2.87
2019-01-18T05:27:22.153Z,2.40
2019-01-18T05:29:52.959Z,2.87
2019-01-18T05:32:26.363Z,2.67
2019-01-18T05:35:06.289Z,2.43
2019-01-18T05:38:00.409Z,2.63
2019-01-18T05:40:31.426Z,2.80
2019-01-18T05:43:06.532Z,2.60
2019-01-18T05:45:37.502Z,2.83
2019-01-18T05:48:09.019Z,2.60
2019-01-18T05:50:43.195Z,2.77
2019-01-18T05:53:16.611Z,2.73
2019-01-18T05:55:48.998Z,2.70
2019-01-18T05:58:21.383Z,2.90
2019-01-18T06:01:05.315Z,2.97
2019-01-18T06:03:36.114Z,2.67
2019-01-18T06:06:07.113Z,2.90
2019-01-18T06:08:38.051Z,2.77
2019-01-18T06:11:08.846Z,2.80
2019-01-18T06:13:39.687Z,2.87
2019-01-18T06:16:10.732Z,2.30
2019-01-18T06:18:42.761Z,3.37
2019-01-18T06:21:13.584Z,2.33
2019-01-18T06:23:44.407Z,3.23
2019-01-18T06:26:15.149Z,3.10
2019-01-18T06:28:45.963Z,3.13
2019-01-18T06:31:17.107Z,3.00
2019-01-18T06:33:47.876Z,3.77
2019-01-18T06:36:20.664Z,3.10
2019-01-18T06:38:51.826Z,2.90
2019-01-18T06:41:57.156Z,3.07
2019-01-18T06:44:28.166Z,3.07
2019-01-18T06:47:04.510Z,3.47
2019-01-18T06:49:42.445Z,3.73
2019-01-18T06:52:13.248Z,3.70
2019-01-18T06:54:44.098Z,3.40
2019-01-18T06:57:15.437Z,3.70
2019-01-18T06:59:46.198Z,3.53
2019-01-18T07:02:20.380Z,3.57
2019-01-18T07:04:51.214Z,4.10
2019-01-18T07:07:23.553Z,3.70
2019-01-18T07:10:03.978Z,3.73
2019-01-18T07:12:34.831Z,3.90
2019-01-18T07:15:06.307Z,2.87
2019-01-18T07:17:38.731Z,3.63
2019-01-18T07:20:11.893Z,3.20
2019-01-18T07:22:42.889Z,3.47
2019-01-18T07:25:16.810Z,3.60
2019-01-18T07:27:54.440Z,3.40
2019-01-18T07:30:27.740Z,3.83
2019-01-18T07:32:58.577Z,3.20
2019-01-18T07:35:29.927Z,3.43
2019-01-18T07:38:00.678Z,3.53
2019-01-18T07:40:34.734Z,3.20
2019-01-18T07:43:08.814Z,3.30
2019-01-18T07:45:39.845Z,3.27
2019-01-18T07:48:10.679Z,3.00
2019-01-18T07:50:41.489Z,3.00
2019-01-18T07:53:12.371Z,2.80
2019-01-18T07:55:43.455Z,3.03
2019-01-18T07:58:23.708Z,2.57
2019-01-18T08:01:02.809Z,2.80
2019-01-18T08:04:08.352Z,2.80
2019-01-18T08:06:46.718Z,3.30
2019-01-18T08:09:31.232Z,2.73
2019-01-18T08:12:03.538Z,2.90
2019-01-18T08:14:34.425Z,2.80
2019-01-18T08:17:05.796Z,3.07
2019-01-18T08:19:41.121Z,3.23
2019-01-18T08:22:13.495Z,2.80
2019-01-18T08:24:44.504Z,3.50
2019-01-18T08:27:27.933Z,3.13
2019-01-18T08:29:58.756Z,2.93
2019-01-18T08:32:33.572Z,3.47
2019-01-18T08:35:06.048Z,3.20
2019-01-18T08:37:36.876Z,2.97
2019-01-18T08:40:11.654Z,2.90
2019-01-18T08:42:45.202Z,3.20
2019-01-18T08:45:22.282Z,3.10
2019-01-18T08:47:53.108Z,2.77
2019-01-18T08:50:27.895Z,3.07
2019-01-18T08:52:59.140Z,2.63
2019-01-18T08:55:36.290Z,2.97
2019-01-18T08:58:07.356Z,2.80
2019-01-18T09:00:40.088Z,2.70
2019-01-18T09:03:12.888Z,2.63
2019-01-18T09:05:43.706Z,2.90
2019-01-18T09:08:14.795Z,3.00
2019-01-18T09:10:50.208Z,2.80
2019-01-18T09:13:22.906Z,3.10
2019-01-18T09:15:53.659Z,2.80
2019-01-18T09:18:24.475Z,2.93
2019-01-18T09:20:55.659Z,2.67
2019-01-18T09:23:26.483Z,2.87
2019-01-18T09:26:08.248Z,2.93
2019-01-18T09:28:41.146Z,3.10
2019-01-18T09:31:15.389Z,2.67
2019-01-18T09:33:49.019Z,2.67
2019-01-18T09:36:21.407Z,6.60
2019-01-18T09:38:55.904Z,5.77
2019-01-18T09:41:33.544Z,3.80
2019-01-18T09:44:08.077Z,3.07
2019-01-18T09:46:39.158Z,3.20
2019-01-18T09:49:13.226Z,3.00
2019-01-18T09:51:51.864Z,2.43
2019-01-18T09:54:24.822Z,2.50
2019-01-18T09:56:56.336Z,2.27
2019-01-18T09:59:27.535Z,2.67
2019-01-18T10:01:58.451Z,2.93
2019-01-18T10:04:29.277Z,2.90
2019-01-18T10:07:05.653Z,3.50
2019-01-18T10:09:36.893Z,2.87
2019-01-18T10:12:07.687Z,3.10
2019-01-18T10:14:50.393Z,2.87
2019-01-18T10:17:22.526Z,2.90
2019-01-18T10:19:54.364Z,2.73
2019-01-18T10:22:25.306Z,2.83
2019-01-18T10:28:24.806Z,5.40
2019-01-18T10:30:55.795Z,3.60
2019-01-18T10:33:36.874Z,2.77
2019-01-18T10:36:08.444Z,2.43
2019-01-18T10:38:39.447Z,2.30
2019-01-18T10:41:12.242Z,2.30
2019-01-18T10:43:44.732Z,2.83
2019-01-18T10:46:15.839Z,1.93
2019-01-18T10:48:46.637Z,1.87
2019-01-18T10:51:17.926Z,1.57
2019-01-18T10:53:52.426Z,1.90
2019-01-18T10:56:29.189Z,1.83
2019-01-18T10:59:00.179Z,2.03
2019-01-18T11:01:34.187Z,1.77
2019-01-18T11:04:05.053Z,2.37
2019-01-18T11:06:37.967Z,2.13
2019-01-18T11:09:10.782Z,2.20
2019-01-18T11:11:50.723Z,2.23
2019-01-18T11:14:25.666Z,2.10
2019-01-18T11:16:57.001Z,2.10
2019-01-18T11:19:28.239Z,2.20
2019-01-18T11:22:06.745Z,1.87
2019-01-18T11:24:45.195Z,1.80
2019-01-18T11:27:24.481Z,1.80
2019-01-18T11:30:01.764Z,1.63
2019-01-18T11:32:34.035Z,1.93
2019-01-18T11:35:06.114Z,1.60
2019-01-18T11:37:36.915Z,1.90
2019-01-18T11:40:13.800Z,2.20
2019-01-18T11:42:45.769Z,2.00
2019-01-18T11:45:18.391Z,2.37
2019-01-18T11:47:51.962Z,2.10
2019-01-18T11:50:27.151Z,2.10
2019-01-18T11:52:58.001Z,2.20
2019-01-18T11:55:34.524Z,2.30
2019-01-18T11:58:07.141Z,2.53
2019-01-18T12:00:38.108Z,2.07
2019-01-18T12:03:31.254Z,2.63
2019-01-18T12:06:04.962Z,2.03
2019-01-18T12:08:35.966Z,2.40
2019-01-18T12:11:13.796Z,2.37
2019-01-18T12:13:45.025Z,2.10
2019-01-18T12:16:17.625Z,2.23
2019-01-18T12:18:52.032Z,2.47
2019-01-18T12:21:22.751Z,2.57
2019-01-18T12:24:02.973Z,3.27
2019-01-18T12:26:33.952Z,2.60
2019-01-18T12:29:04.756Z,2.40
2019-01-18T12:31:37.235Z,2.80
2019-01-18T12:34:12.452Z,2.50
2019-01-18T12:36:50.293Z,2.23
2019-01-18T12:39:23.088Z,2.43
2019-01-18T12:41:59.508Z,2.87
2019-01-18T12:44:37.200Z,3.00
2019-01-18T12:47:10.476Z,3.60
2019-01-18T12:49:49.224Z,3.40
2019-01-18T12:52:21.494Z,2.83
2019-01-18T12:54:56.151Z,2.40
2019-01-18T12:57:35.934Z,2.00
2019-01-18T13:00:14.082Z,1.97
2019-01-18T13:02:47.184Z,2.67
2019-01-18T13:05:21.402Z,3.00
2019-01-18T13:07:52.546Z,4.87
2019-01-18T13:10:23.690Z,2.90
2019-01-18T13:13:00.749Z,1.90
2019-01-18T13:15:41.376Z,1.87
2019-01-18T13:18:14.189Z,2.00
2019-01-18T13:20:58.060Z,2.00
2019-01-18T13:23:28.520Z,1.90
2019-01-18T13:26:30.037Z,1.83
2019-01-18T13:29:04.328Z,1.63
2019-01-18T13:31:37.097Z,1.77
2019-01-18T13:34:07.950Z,2.20
2019-01-18T13:36:44.019Z,2.10
2019-01-18T13:39:27.455Z,2.90
2019-01-18T13:42:02.669Z,2.20
2019-01-18T13:44:33.495Z,2.17
2019-01-18T13:47:04.592Z,1.93
2019-01-18T13:49:35.449Z,1.67
2019-01-18T13:52:07.939Z,1.97
2019-01-18T13:54:38.918Z,2.63
2019-01-18T13:57:12.248Z,2.10
2019-01-18T13:59:42.510Z,1.90
2019-01-18T14:02:18.235Z,2.00
2019-01-18T14:05:11.268Z,1.63
2019-01-18T14:07:46.490Z,1.90
2019-01-18T14:10:25.832Z,1.50
2019-01-18T14:12:57.341Z,2.03
2019-01-18T14:15:30.868Z,2.30
2019-01-18T14:18:02.099Z,2.00
2019-01-18T14:20:33.405Z,1.90
2019-01-18T14:23:04.221Z,1.83
2019-01-18T14:25:35.061Z,1.90
2019-01-18T14:28:11.053Z,2.30
2019-01-18T14:30:41.840Z,1.87
2019-01-18T14:33:13.931Z,1.80
2019-01-18T14:35:45.496Z,2.27
2019-01-18T14:38:16.310Z,1.63
2019-01-18T14:40:50.742Z,2.50
2019-01-18T14:43:24.951Z,1.80
2019-01-18T14:45:58.467Z,1.77
2019-01-18T14:48:29.612Z,2.30
2019-01-18T14:51:01.522Z,1.67
2019-01-18T14:53:34.973Z,1.90
2019-01-18T14:56:06.145Z,2.47
2019-01-18T14:58:37.606Z,1.67
2019-01-18T15:01:12.766Z,1.93
2019-01-18T15:03:44.193Z,2.10
2019-01-18T15:06:16.973Z,2.10
2019-01-18T15:08:48.448Z,2.10
2019-01-18T15:11:21.969Z,2.10
2019-01-18T15:13:56.992Z,1.90
2019-01-18T15:16:36.258Z,1.70
2019-01-18T15:19:07.978Z,2.40
2019-01-18T15:21:43.089Z,4.50
2019-01-18T15:24:15.410Z,2.67
2019-01-18T15:26:46.421Z,2.20
2019-01-18T15:29:22.666Z,1.77
2019-01-18T15:31:54.134Z,2.93
2019-01-18T15:34:49.704Z,2.93
2019-01-18T15:37:45.046Z,2.20
2019-01-18T15:40:19.768Z,3.70
2019-01-18T15:43:02.669Z,3.00
2019-01-18T15:45:33.525Z,2.30
2019-01-18T15:48:15.948Z,2.73
2019-01-18T15:50:50.720Z,3.00
2019-01-18T15:53:21.812Z,4.37
2019-01-18T15:55:53.470Z,4.00
2019-01-18T15:58:24.343Z,4.63
2019-01-18T16:00:55.606Z,5.20
2019-01-18T16:03:33.927Z,5.37
2019-01-18T16:06:08.349Z,6.10
2019-01-18T16:08:42.463Z,6.23
2019-01-18T16:11:13.620Z,6.97
2019-01-18T16:13:57.039Z,8.17
2019-01-18T16:16:42.705Z,8.00
2019-01-18T16:19:19.261Z,8.30
2019-01-18T16:21:50.493Z,8.20
2019-01-18T16:24:23.509Z,8.43
2019-01-18T16:26:58.248Z,7.60
2019-01-18T16:29:36.742Z,9.87
2019-01-18T16:32:07.867Z,8.30
2019-01-18T16:34:39.795Z,11.10
2019-01-18T16:37:27.127Z,13.33
2019-01-18T16:39:59.808Z,17.70
2019-01-18T16:42:37.923Z,20.63
2019-01-18T16:45:10.532Z,25.90
2019-01-18T16:47:41.461Z,31.20
2019-01-18T16:50:15.954Z,26.33
2019-01-18T16:52:48.910Z,26.27
2019-01-18T16:55:27.450Z,18.77
2019-01-18T16:58:04.351Z,17.97
2019-01-18T17:00:42.820Z,18.63
2019-01-18T17:03:30.251Z,19.27
2019-01-18T17:06:08.615Z,20.50
2019-01-18T17:08:43.286Z,19.67
2019-01-18T17:11:22.723Z,20.67
2019-01-18T17:14:01.574Z,24.93
2019-01-18T17:16:57.451Z,51.50
2019-01-18T17:19:28.474Z,43.90
2019-01-18T17:22:02.705Z,43.50
2019-01-18T17:24:36.907Z,48.90
2019-01-18T17:27:08.430Z,49.00
2019-01-18T17:30:16.269Z,47.63
2019-01-18T17:32:52.106Z,46.27
2019-01-18T17:35:53.500Z,46.90
2019-01-18T17:39:59.319Z,70.97
2019-01-18T17:42:57.939Z,64.10
2019-01-18T17:46:02.668Z,64.37
2019-01-18T17:49:07.267Z,66.90
2019-01-18T17:56:09.221Z,63.47
2019-01-18T17:59:16.428Z,62.80
2019-01-18T18:02:40.042Z,52.17
2019-01-18T18:05:50.214Z,54.00
2019-01-18T18:08:55.770Z,38.80
2019-01-18T18:12:20.206Z,25.07
2019-01-18T18:15:49.047Z,24.97
2019-01-18T18:18:51.820Z,24.10
2019-01-18T18:21:54.175Z,23.13
2019-01-18T18:24:50.446Z,30.90
2019-01-18T18:28:08.439Z,31.90
2019-01-18T18:31:03.969Z,25.57
2019-01-18T18:34:23.453Z,22.67
2019-01-18T18:37:04.167Z,22.73
2019-01-18T18:40:23.049Z,26.97
2019-01-18T18:43:29.881Z,24.00
2019-01-18T18:46:43.980Z,21.67
2019-01-18T18:49:58.748Z,28.07
2019-01-18T18:53:11.625Z,16.67
2019-01-18T18:56:05.104Z,16.77
2019-01-18T18:59:29.067Z,19.17
2019-01-18T19:03:03.203Z,17.93
2019-01-18T19:06:10.042Z,17.63
2019-01-18T19:09:36.075Z,20.43
2019-01-18T19:13:06.376Z,22.67
2019-01-18T19:16:39.048Z,26.70
2019-01-18T19:19:38.438Z,27.07
2019-01-18T19:23:05.403Z,25.17
2019-01-18T19:26:27.985Z,23.63
2019-01-18T19:29:54.738Z,20.77
2019-01-18T19:33:03.399Z,17.87
2019-01-18T19:36:15.421Z,19.03
2019-01-18T19:39:27.970Z,18.57
2019-01-18T19:43:16.029Z,24.57
2019-01-18T19:46:31.072Z,31.43
2019-01-18T19:49:45.984Z,32.67
2019-01-18T19:53:06.557Z,25.77
2019-01-18T19:56:23.683Z,21.53
2019-01-18T19:59:36.041Z,18.13
2019-01-18T20:02:53.300Z,16.80
2019-01-18T20:06:15.044Z,15.90
2019-01-18T20:09:41.808Z,15.10
2019-01-18T20:12:45.412Z,19.27
2019-01-18T20:19:51.995Z,26.73
2019-01-18T20:22:50.260Z,22.67
2019-01-18T20:25:40.054Z,16.03
2019-01-18T20:29:04.668Z,15.00
2019-01-18T20:32:37.489Z,10.73
2019-01-18T20:35:34.186Z,8.87
2019-01-18T20:39:09.998Z,9.93
2019-01-18T20:42:34.094Z,9.73
2019-01-18T20:45:45.059Z,11.33
2019-01-18T20:48:41.162Z,15.07
2019-01-18T20:52:16.446Z,14.73
2019-01-18T20:55:17.553Z,13.00
2019-01-18T20:58:22.254Z,10.93
2019-01-18T21:01:50.648Z,11.13
2019-01-18T21:04:55.965Z,10.00
2019-01-18T21:07:55.293Z,9.37
2019-01-18T21:11:29.723Z,9.17
2019-01-18T21:14:45.568Z,9.33
2019-01-18T21:18:16.783Z,8.57
2019-01-18T21:21:28.843Z,8.30
2019-01-18T21:24:31.234Z,7.83
2019-01-18T21:27:42.921Z,7.77
2019-01-18T21:31:13.058Z,7.67
2019-01-18T21:34:18.792Z,7.83
2019-01-18T21:37:56.191Z,7.50
2019-01-18T21:41:03.667Z,7.00
2019-01-18T21:44:23.915Z,6.60
2019-01-18T21:47:31.109Z,6.37
2019-01-18T21:50:55.229Z,6.10
2019-01-18T21:53:53.372Z,6.13
2019-01-18T21:56:47.798Z,6.20
2019-01-18T21:59:47.458Z,5.43
2019-01-18T22:02:33.114Z,6.20
2019-01-18T22:05:25.033Z,5.63
2019-01-18T22:08:24.232Z,5.70
2019-01-18T22:11:46.409Z,5.70
2019-01-18T22:14:51.998Z,5.63
2019-01-18T22:18:11.706Z,4.93
2019-01-18T22:21:25.131Z,4.90
2019-01-18T22:24:25.644Z,5.13
2019-01-18T22:27:36.461Z,5.10
2019-01-18T22:30:36.143Z,5.10
2019-01-18T22:33:35.606Z,5.67
2019-01-18T22:36:38.782Z,4.87
2019-01-18T22:40:02.657Z,4.90
2019-01-18T22:43:09.550Z,4.70
2019-01-18T22:46:22.905Z,4.53
2019-01-18T22:49:27.295Z,5.37
2019-01-18T22:53:09.704Z,5.80
2019-01-18T22:56:05.962Z,4.80
2019-01-18T22:59:33.297Z,4.80
2019-01-18T23:02:55.859Z,4.70
2019-01-18T23:05:59.345Z,4.60
2019-01-18T23:09:25.631Z,4.20
2019-01-18T23:12:24.070Z,4.70
2019-01-18T23:15:51.304Z,4.20
2019-01-18T23:18:33.013Z,4.10
2019-01-18T23:21:40.239Z,4.50
2019-01-18T23:24:56.503Z,4.33
2019-01-18T23:28:36.807Z,4.20
2019-01-18T23:31:39.819Z,4.23
2019-01-18T23:34:27.227Z,3.93
2019-01-18T23:37:26.468Z,3.90
2019-01-18T23:40:25.038Z,4.03
2019-01-18T23:43:21.757Z,3.40
2019-01-18T23:46:39.218Z,4.60
2019-01-18T23:49:41.859Z,3.60
2019-01-18T23:52:54.971Z,3.70
2019-01-18T23:55:38.045Z,4.30
2019-01-18T23:58:56.644Z,5.27
